sensor_id;sensor_type;location;lat;lon;timestamp;P1;durP1;ratioP1;P2;durP2;ratioP2
40717;SDS011;26405;51.850;-2.246;2024-03-02T00:02:42;11.48;;;3.75;;
40717;SDS011;26405;51.850;-2.246;2024-03-02T00:05:09;7.90;;;2.70;;
40717;SDS011;26405;51.850;-2.246;2024-03-02T00:07:36;10.52;;;3.05;;
40717;SDS011;26405;51.850;-2.246;2024-03-02T00:10:03;7.13;;;3.00;;
40717;SDS011;26405;51.850;-2.246;2024-03-02T00:12:32;9.90;;;2.88;;
40717;SDS011;26405;51.850;-2.246;2024-03-02T00:14:58;7.22;;;3.00;;
40717;SDS011;26405;51.850;-2.246;2024-03-02T00:17:27;10.07;;;3.53;;
40717;SDS011;26405;51.850;-2.246;2024-03-02T00:19:53;11.60;;;4.28;;
40717;SDS011;26405;51.850;-2.246;2024-03-02T00:22:18;5.38;;;2.33;;
40717;SDS011;26405;51.850;-2.246;2024-03-02T00:24:43;2.60;;;1.83;;
40717;SDS011;26405;51.850;-2.246;2024-03-02T00:27:09;6.60;;;2.60;;
40717;SDS011;26405;51.850;-2.246;2024-03-02T00:29:38;5.85;;;2.80;;
40717;SDS011;26405;51.850;-2.246;2024-03-02T00:34:30;7.00;;;3.07;;
40717;SDS011;26405;51.850;-2.246;2024-03-02T00:36:57;5.22;;;2.28;;
40717;SDS011;26405;51.850;-2.246;2024-03-02T00:39:22;6.22;;;2.60;;
40717;SDS011;26405;51.850;-2.246;2024-03-02T00:41:47;4.57;;;2.10;;
40717;SDS011;26405;51.850;-2.246;2024-03-02T00:44:13;4.97;;;2.33;;
40717;SDS011;26405;51.850;-2.246;2024-03-02T00:46:40;6.75;;;2.58;;
40717;SDS011;26405;51.850;-2.246;2024-03-02T00:51:38;3.10;;;2.10;;
40717;SDS011;26405;51.850;-2.246;2024-03-02T00:54:04;4.95;;;2.60;;
40717;SDS011;26405;51.850;-2.246;2024-03-02T00:56:30;4.77;;;2.50;;
40717;SDS011;26405;51.850;-2.246;2024-03-02T00:58:56;3.75;;;2.40;;
40717;SDS011;26405;51.850;-2.246;2024-03-02T01:01:21;4.22;;;2.08;;
40717;SDS011;26405;51.850;-2.246;2024-03-02T01:03:47;4.75;;;2.08;;
40717;SDS011;26405;51.850;-2.246;2024-03-02T01:06:14;2.00;;;1.70;;
40717;SDS011;26405;51.850;-2.246;2024-03-02T01:08:39;4.03;;;1.70;;
40717;SDS011;26405;51.850;-2.246;2024-03-02T01:11:04;1.92;;;1.55;;
40717;SDS011;26405;51.850;-2.246;2024-03-02T01:13:30;2.13;;;1.42;;
40717;SDS011;26405;51.850;-2.246;2024-03-02T01:15:55;1.92;;;1.27;;
40717;SDS011;26405;51.850;-2.246;2024-03-02T01:18:21;2.15;;;1.60;;
40717;SDS011;26405;51.850;-2.246;2024-03-02T01:20:47;3.97;;;1.65;;
40717;SDS011;26405;51.850;-2.246;2024-03-02T01:23:12;2.10;;;1.48;;
40717;SDS011;26405;51.850;-2.246;2024-03-02T01:25:38;3.22;;;1.83;;
40717;SDS011;26405;51.850;-2.246;2024-03-02T01:28:03;3.50;;;1.63;;
40717;SDS011;26405;51.850;-2.246;2024-03-02T01:30:29;3.40;;;1.63;;
40717;SDS011;26405;51.850;-2.246;2024-03-02T01:32:54;2.60;;;1.58;;
40717;SDS011;26405;51.850;-2.246;2024-03-02T01:35:19;4.70;;;1.90;;
40717;SDS011;26405;51.850;-2.246;2024-03-02T01:37:44;3.15;;;1.60;;
40717;SDS011;26405;51.850;-2.246;2024-03-02T01:40:10;3.53;;;1.98;;
40717;SDS011;26405;51.850;-2.246;2024-03-02T01:42:36;3.05;;;1.77;;
40717;SDS011;26405;51.850;-2.246;2024-03-02T01:45:01;4.63;;;1.98;;
40717;SDS011;26405;51.850;-2.246;2024-03-02T01:47:27;3.25;;;1.80;;
40717;SDS011;26405;51.850;-2.246;2024-03-02T01:49:52;2.97;;;1.80;;
40717;SDS011;26405;51.850;-2.246;2024-03-02T01:52:19;3.53;;;1.90;;
40717;SDS011;26405;51.850;-2.246;2024-03-02T01:54:44;3.20;;;1.88;;
40717;SDS011;26405;51.850;-2.246;2024-03-02T01:57:09;3.20;;;1.67;;
40717;SDS011;26405;51.850;-2.246;2024-03-02T01:59:35;3.30;;;1.80;;
40717;SDS011;26405;51.850;-2.246;2024-03-02T02:02:00;3.92;;;1.63;;
40717;SDS011;26405;51.850;-2.246;2024-03-02T02:04:26;2.85;;;1.70;;
40717;SDS011;26405;51.850;-2.246;2024-03-02T02:06:53;3.35;;;1.80;;
40717;SDS011;26405;51.850;-2.246;2024-03-02T02:09:18;3.63;;;1.60;;
40717;SDS011;26405;51.850;-2.246;2024-03-02T02:11:43;2.63;;;1.67;;
40717;SDS011;26405;51.850;-2.246;2024-03-02T02:14:09;4.38;;;1.85;;
40717;SDS011;26405;51.850;-2.246;2024-03-02T02:16:35;3.63;;;1.95;;
40717;SDS011;26405;51.850;-2.246;2024-03-02T02:19:00;4.05;;;1.48;;
40717;SDS011;26405;51.850;-2.246;2024-03-02T02:21:25;2.70;;;1.48;;
40717;SDS011;26405;51.850;-2.246;2024-03-02T02:23:51;3.17;;;1.85;;
40717;SDS011;26405;51.850;-2.246;2024-03-02T02:26:16;4.90;;;1.40;;
40717;SDS011;26405;51.850;-2.246;2024-03-02T02:28:41;4.15;;;1.92;;
40717;SDS011;26405;51.850;-2.246;2024-03-02T02:31:15;2.53;;;1.60;;
40717;SDS011;26405;51.850;-2.246;2024-03-02T02:33:40;5.30;;;1.80;;
40717;SDS011;26405;51.850;-2.246;2024-03-02T02:36:06;3.95;;;1.70;;
40717;SDS011;26405;51.850;-2.246;2024-03-02T02:38:35;6.70;;;2.05;;
40717;SDS011;26405;51.850;-2.246;2024-03-02T02:41:01;3.22;;;1.92;;
40717;SDS011;26405;51.850;-2.246;2024-03-02T02:43:27;4.38;;;1.80;;
40717;SDS011;26405;51.850;-2.246;2024-03-02T02:45:52;3.80;;;1.63;;
40717;SDS011;26405;51.850;-2.246;2024-03-02T02:48:18;4.35;;;1.70;;
40717;SDS011;26405;51.850;-2.246;2024-03-02T02:50:43;5.03;;;2.10;;
40717;SDS011;26405;51.850;-2.246;2024-03-02T02:53:08;3.72;;;2.00;;
40717;SDS011;26405;51.850;-2.246;2024-03-02T02:55:34;5.85;;;2.10;;
40717;SDS011;26405;51.850;-2.246;2024-03-02T02:58:02;2.92;;;1.60;;
40717;SDS011;26405;51.850;-2.246;2024-03-02T03:00:27;3.92;;;1.90;;
40717;SDS011;26405;51.850;-2.246;2024-03-02T03:02:53;3.42;;;1.80;;
40717;SDS011;26405;51.850;-2.246;2024-03-02T03:05:18;3.33;;;1.77;;
40717;SDS011;26405;51.850;-2.246;2024-03-02T03:07:43;5.45;;;2.05;;
40717;SDS011;26405;51.850;-2.246;2024-03-02T03:10:13;4.18;;;1.90;;
40717;SDS011;26405;51.850;-2.246;2024-03-02T03:12:38;3.55;;;1.80;;
40717;SDS011;26405;51.850;-2.246;2024-03-02T03:15:06;5.18;;;1.90;;
40717;SDS011;26405;51.850;-2.246;2024-03-02T03:17:32;3.78;;;1.65;;
40717;SDS011;26405;51.850;-2.246;2024-03-02T03:19:57;3.42;;;1.67;;
40717;SDS011;26405;51.850;-2.246;2024-03-02T03:22:22;5.10;;;2.08;;
40717;SDS011;26405;51.850;-2.246;2024-03-02T03:24:48;3.72;;;1.83;;
40717;SDS011;26405;51.850;-2.246;2024-03-02T03:27:13;6.05;;;1.88;;
40717;SDS011;26405;51.850;-2.246;2024-03-02T03:29:38;4.38;;;1.77;;
40717;SDS011;26405;51.850;-2.246;2024-03-02T03:32:04;5.90;;;1.77;;
40717;SDS011;26405;51.850;-2.246;2024-03-02T03:34:32;4.60;;;1.70;;
40717;SDS011;26405;51.850;-2.246;2024-03-02T03:36:57;5.35;;;1.70;;
40717;SDS011;26405;51.850;-2.246;2024-03-02T03:39:23;4.82;;;1.77;;
40717;SDS011;26405;51.850;-2.246;2024-03-02T03:41:48;5.10;;;1.92;;
40717;SDS011;26405;51.850;-2.246;2024-03-02T03:44:13;7.97;;;1.77;;
40717;SDS011;26405;51.850;-2.246;2024-03-02T03:46:38;4.78;;;1.80;;
40717;SDS011;26405;51.850;-2.246;2024-03-02T03:49:04;8.45;;;1.85;;
40717;SDS011;26405;51.850;-2.246;2024-03-02T03:51:30;5.68;;;2.00;;
40717;SDS011;26405;51.850;-2.246;2024-03-02T03:53:55;5.35;;;1.65;;
40717;SDS011;26405;51.850;-2.246;2024-03-02T03:56:21;6.13;;;1.80;;
40717;SDS011;26405;51.850;-2.246;2024-03-02T03:58:46;8.30;;;1.88;;
40717;SDS011;26405;51.850;-2.246;2024-03-02T04:01:11;6.60;;;2.17;;
40717;SDS011;26405;51.850;-2.246;2024-03-02T04:03:37;6.03;;;2.00;;
40717;SDS011;26405;51.850;-2.246;2024-03-02T04:06:03;6.45;;;2.00;;
40717;SDS011;26405;51.850;-2.246;2024-03-02T04:08:28;4.57;;;1.50;;
40717;SDS011;26405;51.850;-2.246;2024-03-02T04:10:53;8.52;;;2.10;;
40717;SDS011;26405;51.850;-2.246;2024-03-02T04:13:18;4.03;;;1.50;;
40717;SDS011;26405;51.850;-2.246;2024-03-02T04:15:44;5.28;;;1.65;;
40717;SDS011;26405;51.850;-2.246;2024-03-02T04:18:09;6.97;;;1.60;;
40717;SDS011;26405;51.850;-2.246;2024-03-02T04:20:34;6.55;;;1.95;;
40717;SDS011;26405;51.850;-2.246;2024-03-02T04:23:00;5.63;;;2.15;;
40717;SDS011;26405;51.850;-2.246;2024-03-02T04:25:25;6.35;;;1.65;;
40717;SDS011;26405;51.850;-2.246;2024-03-02T04:27:51;4.22;;;1.50;;
40717;SDS011;26405;51.850;-2.246;2024-03-02T04:30:16;5.03;;;1.70;;
40717;SDS011;26405;51.850;-2.246;2024-03-02T04:32:41;3.80;;;1.48;;
40717;SDS011;26405;51.850;-2.246;2024-03-02T04:35:11;3.88;;;1.45;;
40717;SDS011;26405;51.850;-2.246;2024-03-02T04:37:36;5.13;;;1.65;;
40717;SDS011;26405;51.850;-2.246;2024-03-02T04:40:01;2.80;;;1.50;;
40717;SDS011;26405;51.850;-2.246;2024-03-02T04:42:27;2.15;;;1.40;;
40717;SDS011;26405;51.850;-2.246;2024-03-02T04:44:52;3.65;;;1.52;;
40717;SDS011;26405;51.850;-2.246;2024-03-02T04:47:17;3.58;;;1.50;;
40717;SDS011;26405;51.850;-2.246;2024-03-02T04:49:42;3.22;;;1.50;;
40717;SDS011;26405;51.850;-2.246;2024-03-02T04:52:08;2.58;;;1.30;;
40717;SDS011;26405;51.850;-2.246;2024-03-02T04:54:33;2.40;;;1.33;;
40717;SDS011;26405;51.850;-2.246;2024-03-02T04:57:19;2.08;;;1.25;;
40717;SDS011;26405;51.850;-2.246;2024-03-02T04:59:44;0.98;;;0.90;;
40717;SDS011;26405;51.850;-2.246;2024-03-02T05:02:09;1.63;;;1.17;;
40717;SDS011;26405;51.850;-2.246;2024-03-02T05:04:34;3.05;;;1.23;;
40717;SDS011;26405;51.850;-2.246;2024-03-02T05:07:00;1.42;;;1.10;;
40717;SDS011;26405;51.850;-2.246;2024-03-02T05:09:25;1.58;;;1.00;;
40717;SDS011;26405;51.850;-2.246;2024-03-02T05:11:50;2.28;;;0.70;;
40717;SDS011;26405;51.850;-2.246;2024-03-02T05:14:34;2.53;;;1.10;;
40717;SDS011;26405;51.850;-2.246;2024-03-02T05:17:00;0.95;;;0.88;;
40717;SDS011;26405;51.850;-2.246;2024-03-02T05:19:25;1.25;;;0.88;;
40717;SDS011;26405;51.850;-2.246;2024-03-02T05:21:50;0.73;;;0.73;;
40717;SDS011;26405;51.850;-2.246;2024-03-02T05:24:16;2.05;;;1.00;;
40717;SDS011;26405;51.850;-2.246;2024-03-02T05:26:42;0.77;;;0.77;;
40717;SDS011;26405;51.850;-2.246;2024-03-02T05:29:07;1.23;;;0.98;;
40717;SDS011;26405;51.850;-2.246;2024-03-02T05:31:32;1.00;;;0.85;;
40717;SDS011;26405;51.850;-2.246;2024-03-02T05:33:58;1.00;;;0.88;;
40717;SDS011;26405;51.850;-2.246;2024-03-02T05:36:23;0.93;;;0.90;;
40717;SDS011;26405;51.850;-2.246;2024-03-02T05:38:48;0.73;;;0.73;;
40717;SDS011;26405;51.850;-2.246;2024-03-02T05:41:13;1.40;;;1.10;;
40717;SDS011;26405;51.850;-2.246;2024-03-02T05:43:39;1.98;;;1.10;;
40717;SDS011;26405;51.850;-2.246;2024-03-02T05:46:04;1.67;;;1.00;;
40717;SDS011;26405;51.850;-2.246;2024-03-02T05:48:30;0.80;;;0.80;;
40717;SDS011;26405;51.850;-2.246;2024-03-02T05:50:55;0.77;;;0.77;;
40717;SDS011;26405;51.850;-2.246;2024-03-02T05:53:20;0.60;;;0.60;;
40717;SDS011;26405;51.850;-2.246;2024-03-02T05:55:45;0.93;;;0.93;;
40717;SDS011;26405;51.850;-2.246;2024-03-02T05:58:11;1.52;;;0.90;;
40717;SDS011;26405;51.850;-2.246;2024-03-02T06:00:54;2.65;;;0.77;;
40717;SDS011;26405;51.850;-2.246;2024-03-02T06:03:20;0.70;;;0.70;;
40717;SDS011;26405;51.850;-2.246;2024-03-02T06:05:45;0.93;;;0.75;;
40717;SDS011;26405;51.850;-2.246;2024-03-02T06:08:10;0.80;;;0.80;;
40717;SDS011;26405;51.850;-2.246;2024-03-02T06:10:36;1.50;;;0.93;;
40717;SDS011;26405;51.850;-2.246;2024-03-02T06:13:01;0.80;;;0.80;;
40717;SDS011;26405;51.850;-2.246;2024-03-02T06:15:26;1.70;;;1.10;;
40717;SDS011;26405;51.850;-2.246;2024-03-02T06:17:52;1.23;;;0.90;;
40717;SDS011;26405;51.850;-2.246;2024-03-02T06:20:17;1.35;;;0.68;;
40717;SDS011;26405;51.850;-2.246;2024-03-02T06:22:42;0.70;;;0.70;;
40717;SDS011;26405;51.850;-2.246;2024-03-02T06:25:08;0.65;;;0.60;;
40717;SDS011;26405;51.850;-2.246;2024-03-02T06:27:33;1.13;;;1.00;;
40717;SDS011;26405;51.850;-2.246;2024-03-02T06:29:58;3.55;;;1.52;;
40717;SDS011;26405;51.850;-2.246;2024-03-02T06:32:24;1.50;;;1.00;;
40717;SDS011;26405;51.850;-2.246;2024-03-02T06:34:51;1.98;;;1.00;;
40717;SDS011;26405;51.850;-2.246;2024-03-02T06:37:16;1.20;;;0.88;;
40717;SDS011;26405;51.850;-2.246;2024-03-02T06:39:41;0.70;;;0.70;;
40717;SDS011;26405;51.850;-2.246;2024-03-02T06:42:06;1.10;;;0.80;;
40717;SDS011;26405;51.850;-2.246;2024-03-02T06:44:32;0.60;;;0.60;;
40717;SDS011;26405;51.850;-2.246;2024-03-02T06:46:57;0.70;;;0.70;;
40717;SDS011;26405;51.850;-2.246;2024-03-02T06:49:22;0.90;;;0.90;;
40717;SDS011;26405;51.850;-2.246;2024-03-02T06:51:48;0.77;;;0.77;;
40717;SDS011;26405;51.850;-2.246;2024-03-02T06:54:13;0.57;;;0.55;;
40717;SDS011;26405;51.850;-2.246;2024-03-02T06:56:38;0.90;;;0.90;;
40717;SDS011;26405;51.850;-2.246;2024-03-02T06:59:04;0.75;;;0.75;;
40717;SDS011;26405;51.850;-2.246;2024-03-02T07:01:29;3.55;;;0.90;;
40717;SDS011;26405;51.850;-2.246;2024-03-02T07:03:54;1.08;;;0.88;;
40717;SDS011;26405;51.850;-2.246;2024-03-02T07:06:20;1.15;;;0.90;;
40717;SDS011;26405;51.850;-2.246;2024-03-02T07:08:45;1.00;;;0.90;;
40717;SDS011;26405;51.850;-2.246;2024-03-02T07:11:10;1.10;;;0.95;;
40717;SDS011;26405;51.850;-2.246;2024-03-02T07:13:35;3.33;;;1.10;;
40717;SDS011;26405;51.850;-2.246;2024-03-02T07:16:01;2.25;;;1.08;;
40717;SDS011;26405;51.850;-2.246;2024-03-02T07:18:29;2.70;;;1.10;;
40717;SDS011;26405;51.850;-2.246;2024-03-02T07:21:06;1.45;;;1.10;;
40717;SDS011;26405;51.850;-2.246;2024-03-02T07:23:32;2.35;;;1.00;;
40717;SDS011;26405;51.850;-2.246;2024-03-02T07:25:57;1.50;;;0.82;;
40717;SDS011;26405;51.850;-2.246;2024-03-02T07:28:24;1.88;;;0.93;;
40717;SDS011;26405;51.850;-2.246;2024-03-02T07:31:03;2.60;;;1.05;;
40717;SDS011;26405;51.850;-2.246;2024-03-02T07:33:29;1.73;;;1.05;;
40717;SDS011;26405;51.850;-2.246;2024-03-02T07:35:55;4.10;;;0.90;;
40717;SDS011;26405;51.850;-2.246;2024-03-02T07:38:24;1.10;;;0.88;;
40717;SDS011;26405;51.850;-2.246;2024-03-02T07:40:49;1.88;;;1.13;;
40717;SDS011;26405;51.850;-2.246;2024-03-02T07:43:18;3.13;;;1.20;;
40717;SDS011;26405;51.850;-2.246;2024-03-02T07:45:44;1.27;;;0.98;;
40717;SDS011;26405;51.850;-2.246;2024-03-02T07:48:09;1.92;;;1.02;;
40717;SDS011;26405;51.850;-2.246;2024-03-02T07:50:35;2.45;;;1.17;;
40717;SDS011;26405;51.850;-2.246;2024-03-02T07:53:03;1.60;;;1.08;;
40717;SDS011;26405;51.850;-2.246;2024-03-02T07:55:29;1.17;;;0.95;;
40717;SDS011;26405;51.850;-2.246;2024-03-02T07:57:54;2.10;;;1.30;;
40717;SDS011;26405;51.850;-2.246;2024-03-02T08:00:20;3.33;;;1.45;;
40717;SDS011;26405;51.850;-2.246;2024-03-02T08:02:45;2.10;;;1.27;;
40717;SDS011;26405;51.850;-2.246;2024-03-02T08:05:10;3.05;;;1.40;;
40717;SDS011;26405;51.850;-2.246;2024-03-02T08:07:36;3.35;;;2.50;;
40717;SDS011;26405;51.850;-2.246;2024-03-02T08:10:01;4.65;;;2.60;;
40717;SDS011;26405;51.850;-2.246;2024-03-02T08:12:26;6.97;;;2.70;;
40717;SDS011;26405;51.850;-2.246;2024-03-02T08:14:51;4.47;;;2.33;;
40717;SDS011;26405;51.850;-2.246;2024-03-02T08:17:17;7.18;;;3.50;;
40717;SDS011;26405;51.850;-2.246;2024-03-02T08:19:42;4.95;;;2.58;;
40717;SDS011;26405;51.850;-2.246;2024-03-02T08:22:08;4.80;;;2.10;;
40717;SDS011;26405;51.850;-2.246;2024-03-02T08:24:33;5.70;;;2.35;;
40717;SDS011;26405;51.850;-2.246;2024-03-02T08:26:59;1.85;;;1.58;;
40717;SDS011;26405;51.850;-2.246;2024-03-02T08:29:24;1.52;;;1.33;;
40717;SDS011;26405;51.850;-2.246;2024-03-02T08:31:50;1.98;;;1.10;;
40717;SDS011;26405;51.850;-2.246;2024-03-02T08:34:15;2.28;;;1.35;;
40717;SDS011;26405;51.850;-2.246;2024-03-02T08:36:40;8.13;;;2.88;;
40717;SDS011;26405;51.850;-2.246;2024-03-02T08:39:06;1.83;;;1.70;;
40717;SDS011;26405;51.850;-2.246;2024-03-02T08:41:40;1.92;;;1.40;;
40717;SDS011;26405;51.850;-2.246;2024-03-02T08:44:05;1.40;;;1.30;;
40717;SDS011;26405;51.850;-2.246;2024-03-02T08:46:31;1.48;;;1.35;;
40717;SDS011;26405;51.850;-2.246;2024-03-02T08:48:56;1.60;;;1.35;;
40717;SDS011;26405;51.850;-2.246;2024-03-02T08:51:22;2.38;;;1.65;;
40717;SDS011;26405;51.850;-2.246;2024-03-02T08:53:47;1.70;;;1.60;;
40717;SDS011;26405;51.850;-2.246;2024-03-02T08:56:12;1.55;;;1.45;;
40717;SDS011;26405;51.850;-2.246;2024-03-02T08:58:38;5.28;;;2.55;;
40717;SDS011;26405;51.850;-2.246;2024-03-02T09:01:03;4.57;;;2.10;;
40717;SDS011;26405;51.850;-2.246;2024-03-02T09:03:28;4.50;;;2.28;;
40717;SDS011;26405;51.850;-2.246;2024-03-02T09:05:54;6.32;;;2.80;;
40717;SDS011;26405;51.850;-2.246;2024-03-02T09:08:19;7.68;;;3.33;;
40717;SDS011;26405;51.850;-2.246;2024-03-02T09:10:45;16.45;;;5.30;;
40717;SDS011;26405;51.850;-2.246;2024-03-02T09:13:10;16.55;;;6.38;;
40717;SDS011;26405;51.850;-2.246;2024-03-02T09:15:36;8.70;;;3.88;;
40717;SDS011;26405;51.850;-2.246;2024-03-02T09:18:02;9.55;;;3.75;;
40717;SDS011;26405;51.850;-2.246;2024-03-02T09:20:28;7.53;;;2.78;;
40717;SDS011;26405;51.850;-2.246;2024-03-02T09:22:53;3.15;;;2.33;;
40717;SDS011;26405;51.850;-2.246;2024-03-02T09:25:19;4.30;;;2.30;;
40717;SDS011;26405;51.850;-2.246;2024-03-02T09:27:44;2.58;;;1.50;;
40717;SDS011;26405;51.850;-2.246;2024-03-02T09:30:09;1.70;;;1.13;;
40717;SDS011;26405;51.850;-2.246;2024-03-02T09:32:35;1.33;;;1.10;;
40717;SDS011;26405;51.850;-2.246;2024-03-02T09:35:01;2.17;;;1.50;;
40717;SDS011;26405;51.850;-2.246;2024-03-02T09:37:27;1.88;;;1.30;;
40717;SDS011;26405;51.850;-2.246;2024-03-02T09:39:53;1.88;;;1.20;;
40717;SDS011;26405;51.850;-2.246;2024-03-02T09:42:19;1.60;;;1.20;;
40717;SDS011;26405;51.850;-2.246;2024-03-02T09:44:44;1.98;;;1.20;;
40717;SDS011;26405;51.850;-2.246;2024-03-02T09:47:10;2.60;;;1.27;;
40717;SDS011;26405;51.850;-2.246;2024-03-02T09:49:35;1.85;;;1.40;;
40717;SDS011;26405;51.850;-2.246;2024-03-02T09:52:01;2.28;;;1.52;;
40717;SDS011;26405;51.850;-2.246;2024-03-02T09:54:28;2.03;;;1.60;;
40717;SDS011;26405;51.850;-2.246;2024-03-02T09:56:53;5.55;;;1.70;;
40717;SDS011;26405;51.850;-2.246;2024-03-02T10:05:26;4.70;;;2.08;;
40717;SDS011;26405;51.850;-2.246;2024-03-02T10:07:59;4.53;;;1.73;;
40717;SDS011;26405;51.850;-2.246;2024-03-02T10:10:26;3.00;;;1.90;;
40717;SDS011;26405;51.850;-2.246;2024-03-02T10:13:04;10.05;;;3.30;;
40717;SDS011;26405;51.850;-2.246;2024-03-02T10:15:30;7.22;;;2.40;;
40717;SDS011;26405;51.850;-2.246;2024-03-02T10:17:55;2.95;;;1.50;;
40717;SDS011;26405;51.850;-2.246;2024-03-02T10:20:21;2.65;;;1.45;;
40717;SDS011;26405;51.850;-2.246;2024-03-02T10:25:28;1.80;;;1.30;;
40717;SDS011;26405;51.850;-2.246;2024-03-02T10:27:53;1.27;;;1.17;;
40717;SDS011;26405;51.850;-2.246;2024-03-02T10:30:21;1.83;;;1.70;;
40717;SDS011;26405;51.850;-2.246;2024-03-02T10:32:48;1.50;;;1.20;;
40717;SDS011;26405;51.850;-2.246;2024-03-02T10:35:14;1.50;;;1.40;;
40717;SDS011;26405;51.850;-2.246;2024-03-02T10:37:40;1.58;;;1.48;;
40717;SDS011;26405;51.850;-2.246;2024-03-02T10:40:06;1.02;;;0.80;;
40717;SDS011;26405;51.850;-2.246;2024-03-02T10:42:33;1.55;;;1.42;;
40717;SDS011;26405;51.850;-2.246;2024-03-02T10:44:59;2.08;;;1.40;;
40717;SDS011;26405;51.850;-2.246;2024-03-02T10:47:24;2.05;;;1.48;;
40717;SDS011;26405;51.850;-2.246;2024-03-02T10:49:52;1.60;;;1.48;;
40717;SDS011;26405;51.850;-2.246;2024-03-02T10:52:18;1.75;;;1.50;;
40717;SDS011;26405;51.850;-2.246;2024-03-02T10:54:43;1.98;;;1.75;;
40717;SDS011;26405;51.850;-2.246;2024-03-02T10:57:09;3.85;;;1.90;;
40717;SDS011;26405;51.850;-2.246;2024-03-02T10:59:36;2.13;;;1.43;;
40717;SDS011;26405;51.850;-2.246;2024-03-02T11:02:05;5.53;;;1.80;;
40717;SDS011;26405;51.850;-2.246;2024-03-02T11:04:33;2.20;;;1.88;;
40717;SDS011;26405;51.850;-2.246;2024-03-02T11:07:02;2.53;;;2.00;;
40717;SDS011;26405;51.850;-2.246;2024-03-02T11:09:28;2.20;;;1.67;;
40717;SDS011;26405;51.850;-2.246;2024-03-02T11:11:56;1.90;;;1.75;;
40717;SDS011;26405;51.850;-2.246;2024-03-02T11:14:24;2.17;;;1.98;;
40717;SDS011;26405;51.850;-2.246;2024-03-02T11:16:50;1.60;;;1.50;;
40717;SDS011;26405;51.850;-2.246;2024-03-02T11:19:16;2.28;;;1.50;;
40717;SDS011;26405;51.850;-2.246;2024-03-02T11:21:42;1.50;;;1.40;;
40717;SDS011;26405;51.850;-2.246;2024-03-02T11:27:07;1.30;;;1.20;;
40717;SDS011;26405;51.850;-2.246;2024-03-02T11:34:42;1.60;;;1.30;;
40717;SDS011;26405;51.850;-2.246;2024-03-02T11:37:14;2.20;;;1.83;;
40717;SDS011;26405;51.850;-2.246;2024-03-02T11:39:40;1.83;;;1.60;;
40717;SDS011;26405;51.850;-2.246;2024-03-02T11:42:08;3.05;;;1.98;;
40717;SDS011;26405;51.850;-2.246;2024-03-02T11:44:35;3.10;;;2.00;;
40717;SDS011;26405;51.850;-2.246;2024-03-02T11:47:01;3.70;;;2.10;;
40717;SDS011;26405;51.850;-2.246;2024-03-02T11:49:39;3.17;;;1.65;;
40717;SDS011;26405;51.850;-2.246;2024-03-02T11:52:06;2.17;;;1.58;;
40717;SDS011;26405;51.850;-2.246;2024-03-02T11:54:35;3.42;;;1.50;;
40717;SDS011;26405;51.850;-2.246;2024-03-02T11:57:01;3.03;;;1.45;;
40717;SDS011;26405;51.850;-2.246;2024-03-02T11:59:27;5.75;;;1.50;;
40717;SDS011;26405;51.850;-2.246;2024-03-02T12:01:53;1.65;;;1.30;;
40717;SDS011;26405;51.850;-2.246;2024-03-02T12:04:18;1.25;;;1.15;;
40717;SDS011;26405;51.850;-2.246;2024-03-02T12:06:44;1.85;;;1.40;;
40717;SDS011;26405;51.850;-2.246;2024-03-02T12:09:11;1.88;;;1.25;;
40717;SDS011;26405;51.850;-2.246;2024-03-02T12:11:37;2.53;;;1.48;;
40717;SDS011;26405;51.850;-2.246;2024-03-02T12:14:02;1.42;;;1.27;;
40717;SDS011;26405;51.850;-2.246;2024-03-02T12:16:29;1.05;;;1.02;;
40717;SDS011;26405;51.850;-2.246;2024-03-02T12:18:54;1.25;;;1.15;;
40717;SDS011;26405;51.850;-2.246;2024-03-02T12:21:20;2.83;;;1.58;;
40717;SDS011;26405;51.850;-2.246;2024-03-02T12:23:45;2.45;;;1.60;;
40717;SDS011;26405;51.850;-2.246;2024-03-02T12:26:10;1.58;;;1.08;;
40717;SDS011;26405;51.850;-2.246;2024-03-02T12:28:36;1.50;;;1.40;;
40717;SDS011;26405;51.850;-2.246;2024-03-02T12:31:01;1.25;;;1.13;;
40717;SDS011;26405;51.850;-2.246;2024-03-02T12:33:27;1.33;;;1.25;;
40717;SDS011;26405;51.850;-2.246;2024-03-02T12:35:54;1.42;;;1.33;;
40717;SDS011;26405;51.850;-2.246;2024-03-02T12:38:19;1.10;;;1.10;;
40717;SDS011;26405;51.850;-2.246;2024-03-02T12:40:47;3.30;;;1.40;;
40717;SDS011;26405;51.850;-2.246;2024-03-02T12:43:12;1.58;;;1.20;;
40717;SDS011;26405;51.850;-2.246;2024-03-02T12:45:37;1.58;;;1.13;;
40717;SDS011;26405;51.850;-2.246;2024-03-02T12:48:04;1.77;;;1.00;;
40717;SDS011;26405;51.850;-2.246;2024-03-02T12:50:30;1.30;;;1.20;;
40717;SDS011;26405;51.850;-2.246;2024-03-02T12:52:55;2.10;;;1.52;;
40717;SDS011;26405;51.850;-2.246;2024-03-02T12:55:21;6.97;;;3.33;;
40717;SDS011;26405;51.850;-2.246;2024-03-02T12:57:47;5.77;;;2.83;;
40717;SDS011;26405;51.850;-2.246;2024-03-02T13:00:12;16.90;;;6.20;;
40717;SDS011;26405;51.850;-2.246;2024-03-02T13:02:41;18.23;;;7.00;;
40717;SDS011;26405;51.850;-2.246;2024-03-02T13:05:07;7.10;;;2.85;;
40717;SDS011;26405;51.850;-2.246;2024-03-02T13:07:36;3.13;;;2.00;;
40717;SDS011;26405;51.850;-2.246;2024-03-02T13:10:01;2.97;;;1.20;;
40717;SDS011;26405;51.850;-2.246;2024-03-02T13:12:27;1.70;;;1.60;;
40717;SDS011;26405;51.850;-2.246;2024-03-02T13:14:53;2.60;;;1.50;;
40717;SDS011;26405;51.850;-2.246;2024-03-02T13:17:21;2.25;;;1.40;;
40717;SDS011;26405;51.850;-2.246;2024-03-02T13:19:56;2.88;;;1.65;;
40717;SDS011;26405;51.850;-2.246;2024-03-02T13:22:22;1.88;;;1.60;;
40717;SDS011;26405;51.850;-2.246;2024-03-02T13:24:48;2.13;;;1.80;;
40717;SDS011;26405;51.850;-2.246;2024-03-02T13:27:14;2.75;;;1.80;;
40717;SDS011;26405;51.850;-2.246;2024-03-02T13:29:39;2.17;;;1.40;;
40717;SDS011;26405;51.850;-2.246;2024-03-02T13:32:04;0.93;;;0.90;;
40717;SDS011;26405;51.850;-2.246;2024-03-02T13:34:30;1.17;;;1.05;;
40717;SDS011;26405;51.850;-2.246;2024-03-02T13:36:55;1.23;;;1.13;;
40717;SDS011;26405;51.850;-2.246;2024-03-02T13:39:20;1.30;;;1.20;;
40717;SDS011;26405;51.850;-2.246;2024-03-02T13:41:46;1.60;;;1.40;;
40717;SDS011;26405;51.850;-2.246;2024-03-02T13:44:18;3.22;;;1.77;;
40717;SDS011;26405;51.850;-2.246;2024-03-02T13:46:43;2.00;;;1.70;;
40717;SDS011;26405;51.850;-2.246;2024-03-02T13:49:10;2.90;;;2.00;;
40717;SDS011;26405;51.850;-2.246;2024-03-02T13:51:36;2.25;;;2.05;;
40717;SDS011;26405;51.850;-2.246;2024-03-02T13:54:01;3.15;;;1.52;;
40717;SDS011;26405;51.850;-2.246;2024-03-02T13:56:28;1.45;;;1.35;;
40717;SDS011;26405;51.850;-2.246;2024-03-02T13:58:53;1.50;;;1.40;;
40717;SDS011;26405;51.850;-2.246;2024-03-02T14:01:18;1.88;;;1.45;;
40717;SDS011;26405;51.850;-2.246;2024-03-02T14:03:44;1.77;;;1.30;;
40717;SDS011;26405;51.850;-2.246;2024-03-02T14:06:11;3.30;;;1.98;;
40717;SDS011;26405;51.850;-2.246;2024-03-02T14:08:36;1.90;;;1.40;;
40717;SDS011;26405;51.850;-2.246;2024-03-02T14:11:01;2.50;;;2.03;;
40717;SDS011;26405;51.850;-2.246;2024-03-02T14:13:27;2.42;;;1.92;;
40717;SDS011;26405;51.850;-2.246;2024-03-02T14:15:52;3.95;;;1.88;;
40717;SDS011;26405;51.850;-2.246;2024-03-02T14:18:18;1.40;;;1.30;;
40717;SDS011;26405;51.850;-2.246;2024-03-02T14:20:43;2.70;;;1.67;;
40717;SDS011;26405;51.850;-2.246;2024-03-02T14:23:08;1.85;;;1.70;;
40717;SDS011;26405;51.850;-2.246;2024-03-02T14:25:35;2.03;;;1.27;;
40717;SDS011;26405;51.850;-2.246;2024-03-02T14:28:00;1.38;;;1.27;;
40717;SDS011;26405;51.850;-2.246;2024-03-02T14:30:26;1.80;;;1.40;;
40717;SDS011;26405;51.850;-2.246;2024-03-02T14:32:51;1.48;;;1.38;;
40717;SDS011;26405;51.850;-2.246;2024-03-02T14:35:16;4.28;;;1.55;;
40717;SDS011;26405;51.850;-2.246;2024-03-02T14:37:42;1.77;;;1.38;;
40717;SDS011;26405;51.850;-2.246;2024-03-02T14:40:07;2.92;;;1.48;;
40717;SDS011;26405;51.850;-2.246;2024-03-02T14:42:34;4.50;;;1.48;;
40717;SDS011;26405;51.850;-2.246;2024-03-02T14:45:00;2.42;;;1.77;;
40717;SDS011;26405;51.850;-2.246;2024-03-02T14:47:25;2.47;;;1.40;;
40717;SDS011;26405;51.850;-2.246;2024-03-02T14:49:50;1.50;;;1.40;;